METAR Data
IDs: Format: Raw Decoded Include TAF

Data at: 2036 UTC 19 May 2019

KSOA 192015Z AUTO 11009KT 10SM CLR 31/13 A2992 RMK AO2
KSOA 191955Z AUTO 11005KT 10SM CLR 30/11 A2992 RMK AO2
KSOA 191935Z AUTO 00000KT 10SM CLR 30/13 A2993 RMK AO2
KSOA 191915Z AUTO VRB04KT 10SM FEW035 FEW045 FEW060 30/13 A2994 RMK AO2
KSOA 191855Z AUTO 06004KT 10SM FEW044 FEW055 FEW070 29/11 A2994 RMK AO2
KSOA 191835Z AUTO 10005KT 10SM FEW041 FEW055 SCT090 29/08 A2996 RMK AO2
KSOA 191815Z AUTO VRB03KT 10SM FEW044 FEW065 SCT100 29/08 A2997 RMK AO2
KSOA 191755Z AUTO 00000KT 10SM FEW100 28/09 A2997 RMK AO2
KSOA 191735Z AUTO 07004KT 10SM FEW090 FEW110 27/11 A2998 RMK AO2
KSOA 191715Z AUTO 09003KT 10SM CLR 27/11 A2998 RMK AO2
KSOA 191655Z AUTO 00000KT 10SM CLR 26/15 A2999 RMK AO2
KSOA 191635Z AUTO VRB03KT 10SM CLR 25/17 A3000 RMK AO2
KSOA 191615Z AUTO 03004KT 10SM CLR 25/19 A2999 RMK AO2
KSOA 191555Z AUTO 02007KT 10SM CLR 23/18 A2999 RMK AO2
KSOA 191535Z AUTO 01007KT 10SM CLR 21/21 A2998 RMK AO2
KSOA 191515Z AUTO 36008KT 10SM FEW004 FEW100 20/20 A2998 RMK AO2 LTG DSNT S
KSOA 191455Z AUTO 02003KT 6SM BR BKN002 BKN100 19/19 A2998 RMK AO2
KSOA 191435Z AUTO VRB04KT 1 1/2SM BR OVC001 19/19 A2997 RMK AO2
KSOA 191415Z AUTO 03004KT M1/4SM FG OVC001 18/18 A2996 RMK AO2
KSOA 191355Z AUTO 00000KT M1/4SM FG OVC001 17/17 A2997 RMK AO2
KSOA 191335Z AUTO 00000KT M1/4SM FG OVC001 16/16 A2997 RMK AO2
KSOA 191315Z AUTO 00000KT M1/4SM FG OVC001 15/15 A2996 RMK AO2
KSOA 191255Z AUTO 00000KT M1/4SM FG OVC001 13/13 A2995 RMK AO2
KSOA 191235Z AUTO 00000KT M1/4SM FG OVC001 13/13 A2994 RMK AO2
KSOA 191215Z AUTO 00000KT 10SM OVC001 11/11 A2994 RMK AO2
KSOA 191155Z AUTO 00000KT 10SM BKN001 11/10 A2994 RMK AO2
KSOA 191135Z AUTO 00000KT 10SM BKN001 11/10 A2994 RMK AO2
KSOA 191115Z AUTO 00000KT 10SM CLR 12/11 A2993 RMK AO2
KSOA 191055Z AUTO 00000KT 10SM CLR 11/11 A2992 RMK AO2
KSOA 191035Z AUTO 00000KT 10SM CLR 11/10 A2991 RMK AO2
KSOA 191015Z AUTO 00000KT 10SM CLR 12/11 A2991 RMK AO2 LTG DSNT S AND SW
KSOA 190955Z AUTO 00000KT 10SM CLR 11/10 A2990 RMK AO2
KSOA 190935Z AUTO 00000KT 10SM CLR 12/12 A2990 RMK AO2
KSOA 190915Z AUTO 00000KT 10SM CLR 11/11 A2991 RMK AO2
KSOA 190855Z AUTO 00000KT 10SM CLR 11/10 A2990 RMK AO2
KSOA 190835Z AUTO 00000KT 10SM CLR 12/11 A2989 RMK AO2
KSOA 190815Z AUTO 00000KT 10SM CLR 12/11 A2989 RMK AO2
KSOA 190755Z AUTO 00000KT 10SM CLR 12/12 A2989 RMK AO2
KSOA 190735Z AUTO 00000KT 10SM CLR 13/12 A2988 RMK AO2
KSOA 190715Z AUTO 00000KT 10SM CLR 13/12 A2988 RMK AO2
KSOA 190655Z AUTO 00000KT 10SM CLR 13/12 A2988 RMK AO2
KSOA 190635Z AUTO 00000KT 10SM CLR 14/12 A2989 RMK AO2
KSOA 190615Z AUTO 00000KT 10SM CLR 14/13 A2989 RMK AO2
KSOA 190555Z AUTO 00000KT 10SM CLR 15/12 A2988 RMK AO2
KSOA 190535Z AUTO 00000KT 10SM CLR 16/13 A2988 RMK AO2
KSOA 190515Z AUTO 00000KT 10SM CLR 16/12 A2988 RMK AO2
KSOA 190455Z AUTO 00000KT 10SM CLR 16/13 A2988 RMK AO2
KSOA 190435Z AUTO 00000KT 10SM CLR 16/14 A2987 RMK AO2
KSOA 190415Z AUTO 00000KT 10SM CLR 17/14 A2986 RMK AO2
KSOA 190355Z AUTO 00000KT 10SM CLR 18/14 A2986 RMK AO2
KSOA 190335Z AUTO 00000KT 10SM CLR 18/13 A2984 RMK AO2
KSOA 190315Z AUTO 00000KT 10SM CLR 19/13 A2983 RMK AO2
KSOA 190255Z AUTO 00000KT 10SM CLR 20/12 A2982 RMK AO2
KSOA 190235Z AUTO 00000KT 10SM CLR 21/12 A2982 RMK AO2
KSOA 190215Z AUTO 00000KT 10SM CLR 21/12 A2981 RMK AO2
KSOA 190155Z AUTO 00000KT 10SM CLR 21/14 A2979 RMK AO2
KSOA 190135Z AUTO 00000KT 10SM CLR 23/10 A2978 RMK AO2
KSOA 190115Z AUTO 00000KT 10SM CLR 25/09 A2977 RMK AO2
KSOA 190055Z AUTO 00000KT 10SM CLR 27/10 A2976 RMK AO2
KSOA 190035Z AUTO 00000KT 10SM CLR 29/08 A2976 RMK AO2
KSOA 190015Z AUTO VRB03KT 10SM CLR 30/06 A2976 RMK AO2
KSOA 182355Z AUTO 32003KT 10SM CLR 30/06 A2975 RMK AO2
KSOA 182335Z AUTO VRB05KT 10SM CLR 30/07 A2975 RMK AO2
KSOA 182315Z AUTO VRB05KT 10SM CLR 30/08 A2975 RMK AO2
KSOA 182255Z AUTO 30005KT 10SM CLR 30/07 A2975 RMK AO2
KSOA 182235Z AUTO 00000G11KT 10SM CLR 30/06 A2975 RMK AO2
KSOA 182215Z AUTO 32008KT 10SM CLR 30/07 A2976 RMK AO2
KSOA 182155Z AUTO 32008G13KT 10SM CLR 30/06 A2976 RMK AO2
KSOA 182135Z AUTO 30007KT 10SM CLR 30/07 A2976 RMK AO2
KSOA 182115Z AUTO 32008G13KT 280V350 10SM CLR 30/07 A2976 RMK AO2
KSOA 182055Z AUTO 29010KT 10SM CLR 30/07 A2977 RMK AO2
KSOA 182035Z AUTO 28008G17KT 10SM CLR 30/07 A2977 RMK AO2
KSOA 182015Z AUTO 29009G18KT 270V330 10SM CLR 30/08 A2977 RMK AO2
KSOA 181955Z AUTO 29013G20KT 10SM CLR 30/07 A2977 RMK AO2
KSOA 181935Z AUTO 27009G17KT 250V310 10SM CLR 30/06 A2977 RMK AO2
KSOA 181915Z AUTO VRB06G18KT 10SM FEW038 FEW065 FEW075 30/07 A2978 RMK AO2
KSOA 181855Z AUTO 32007G17KT 270V340 10SM FEW038 FEW060 SCT080 30/06 A2978 RMK AO2
KSOA 181835Z AUTO 28008KT 250V310 10SM FEW031 FEW055 SCT065 30/06 A2979 RMK AO2
KSOA 181815Z AUTO 29008G15KT 260V340 10SM FEW034 FEW050 SCT085 30/06 A2979 RMK AO2
KSOA 181755Z AUTO 29008G16KT 260V320 10SM CLR 30/05 A2979 RMK AO2
KSOA 181735Z AUTO 29008G15KT 10SM CLR 29/03 A2980 RMK AO2
KSOA 181715Z AUTO 27009G15KT 10SM CLR 29/07 A2980 RMK AO2
KSOA 181655Z AUTO 25011G17KT 10SM FEW040 FEW047 FEW055 27/18 A2979 RMK AO2
KSOA 181635Z AUTO 23010G15KT 10SM FEW040 SCT046 SCT090 27/18 A2980 RMK AO2
KSOA 181615Z AUTO 23011KT 9SM FEW019 SCT042 SCT050 27/19 A2980 RMK AO2 LTG DSNT NE AND E
KSOA 181555Z AUTO 22008G15KT 9SM VCTS CLR 25/22 A2979 RMK AO2 LTG DSNT NE AND E
KSOA 181535Z AUTO 22008G13KT 8SM TS FEW055 23/22 A2979 RMK AO2 LTG DSNT NE-SE
KSOA 181515Z AUTO 21006KT 7SM FEW015 FEW024 FEW033 24/22 A2979 RMK AO2 LTG DSNT SE AND SW
KSOA 181455Z AUTO 21009G15KT 10SM SCT014 SCT021 BKN036 25/22 A2979 RMK AO2
KSOA 181435Z AUTO 21007G16KT 9SM BKN013 BKN021 BKN031 24/22 A2979 RMK AO2 LTG DSNT NE
KSOA 181415Z AUTO 21010KT 9SM BKN014 BKN019 BKN027 23/22 A2978 RMK AO2
KSOA 181355Z AUTO 19008G14KT 4SM -RA BKN017 BKN027 BKN048 23/22 A2978 RMK AO2 LTG DSNT N AND NE
KSOA 181335Z AUTO 19010G17KT 10SM BKN016 BKN023 BKN047 24/21 A2977 RMK AO2
KSOA 181315Z AUTO 19014G22KT 10SM BKN015 BKN025 BKN047 24/21 A2975 RMK AO2
KSOA 181255Z AUTO 18013G20KT 10SM BKN015 BKN024 24/21 A2974 RMK AO2 LTG DSNT N
KSOA 181235Z AUTO 18012G19KT 10SM OVC014 24/21 A2974 RMK AO2
KSOA 181215Z AUTO 18015G21KT 10SM OVC014 24/21 A2973 RMK AO2 LTG DSNT NE AND NW
KSOA 181155Z AUTO 18016G22KT 10SM OVC015 24/21 A2973 RMK AO2
KSOA 181135Z AUTO 18012G21KT 10SM OVC015 24/21 A2973 RMK AO2 LTG DSNT NW-NE
KSOA 181115Z AUTO 19014G19KT 10SM OVC014 24/21 A2974 RMK AO2 LTG DSNT N AND NE
KSOA 181055Z AUTO 17015KT 10SM OVC015 24/21 A2973 RMK AO2 LTG DSNT N
KSOA 181035Z AUTO 17013G19KT 10SM OVC015 24/21 A2972 RMK AO2 LTG DSNT N AND NW
KSOA 181015Z AUTO 16014G22KT 10SM OVC015 24/21 A2972 RMK AO2 LTG DSNT N AND NW
KSOA 180955Z AUTO 16015G22KT 10SM BKN015 OVC020 24/21 A2972 RMK AO2 LTG DSNT N AND NW
KSOA 180935Z AUTO 16011G20KT 10SM BKN016 BKN021 OVC031 23/21 A2972 RMK AO2 LTG DSNT N
KSOA 180915Z AUTO 16009G18KT 8SM BKN016 OVC021 23/21 A2973 RMK AO2 LTG DSNT N
KSOA 180855Z AUTO 14009G16KT 6SM -RA BKN017 OVC024 24/21 A2974 RMK AO2 LTG DSNT N AND NW